This is the latest recevied weather packets stored in our database for station/object IU3IOK-3. If no packets are shown the sender has not sent any weather packets the latest 10 day(s).
| Time | Temp. | Humidity | Pressure | Rain* | Wind** | Luminosity | Snow |
|---|---|---|---|---|---|---|---|
| 1776934602 | 20.56° C | 35% | 1023 hPa | - | - | - | - |
| 1776933702 | 19.44° C | 38% | 1023.2 hPa | - | - | - | - |
| 1776932802 | 19.44° C | 40% | 1023.2 hPa | - | - | - | - |
| 1776931902 | 18.89° C | 40% | 1023.4 hPa | - | - | - | - |
| 1776931002 | 18.33° C | 40% | 1023.6 hPa | - | - | - | - |
| 1776930102 | 18.33° C | 40% | 1023.6 hPa | - | - | - | - |
| 1776929202 | 17.78° C | 41% | 1023.8 hPa | - | - | - | - |
| 1776928302 | 17.78° C | 42% | 1023.8 hPa | - | - | - | - |
| 1776927402 | 17.22° C | 42% | 1023.7 hPa | - | - | - | - |
| 1776926502 | 17.22° C | 43% | 1023.7 hPa | - | - | - | - |
| 1776925602 | 16.67° C | 43% | 1023.7 hPa | - | - | - | - |
| 1776924702 | 16.11° C | 47% | 1023.7 hPa | - | - | - | - |
| 1776923802 | 15.56° C | 49% | 1023.7 hPa | - | - | - | - |
| 1776922902 | 13.89° C | 55% | 1023.7 hPa | - | - | - | - |
| 1776922002 | 12.22° C | 59% | 1023.6 hPa | - | - | - | - |
| 1776921102 | 10.56° C | 64% | 1023.6 hPa | - | - | - | - |
| 1776920202 | 10° C | 64% | 1023.6 hPa | - | - | - | - |
| 1776919302 | 10° C | 63% | 1023.5 hPa | - | - | - | - |
| 1776918402 | 10° C | 64% | 1023.4 hPa | - | - | - | - |
| 1776917502 | 10° C | 64% | 1023.2 hPa | - | - | - | - |
| 1776916602 | 10° C | 64% | 1023 hPa | - | - | - | - |
| 1776915702 | 10° C | 62% | 1023.1 hPa | - | - | - | - |
| 1776914802 | 10.56° C | 62% | 1023.1 hPa | - | - | - | - |
| 1776913902 | 10.56° C | 61% | 1023.1 hPa | - | - | - | - |
| 1776913002 | 10.56° C | 61% | 1023.1 hPa | - | - | - | - |
* Rain since midnight (hover to see other rain measurements)
** Current wind speed in m/s (hover to see current wind gust speed)